Аэропорт: Ульяновск-Восточный. Ульяновск

ICAO: UWLW

METAR:
2021-07-28 14:00:00
UWLW 281400Z 02003MPS 8000 FEW046 25/08 Q1014 R02/CLRD60 NOSIG RMK QFE753
METAR:
2021-07-28 10:51:00
TAF UWLW 281051Z 2812/2912 35003MPS 9999 SCT033 TX27/2812Z TN16/2901Z TEMPO 2812/2816 04005G10MPS BECMG 2816/2818 16003MPS TEMPO 2903/2912 20006G12MPS 6000 -SHRA BKN016CB